createdAt,value
2022-08-17T00:00:43.865Z,96508.41
2022-08-17T00:01:51.994Z,96503.63
2022-08-17T00:02:59.043Z,96506.53
2022-08-17T00:04:00.804Z,96505.50
2022-08-17T00:05:02.824Z,96506.28
2022-08-17T00:06:12.854Z,96500.72
2022-08-17T00:07:14.660Z,96514.50
2022-08-17T00:08:18.068Z,96509.47
2022-08-17T00:09:19.912Z,96507.06
2022-08-17T00:10:21.845Z,96502.03
2022-08-17T00:11:32.223Z,96504.19
2022-08-17T00:12:43.445Z,96511.03
2022-08-17T00:13:47.967Z,96503.63
2022-08-17T00:14:50.671Z,96505.75
2022-08-17T00:15:54.912Z,96501.00
2022-08-17T00:16:57.803Z,96507.84
2022-08-17T00:17:59.689Z,96503.91
2022-08-17T00:19:08.373Z,96495.97
2022-08-17T00:20:11.499Z,96494.66
2022-08-17T00:21:14.056Z,96501.50
2022-08-17T00:22:35.299Z,96500.47
2022-08-17T00:23:38.443Z,96499.94
2022-08-17T00:24:46.124Z,96495.44
2022-08-17T00:25:48.402Z,96496.22
2022-08-17T00:26:50.386Z,96495.44
2022-08-17T00:27:52.199Z,96494.09
2022-08-17T00:28:56.482Z,96495.19
2022-08-17T00:29:58.237Z,96499.16
2022-08-17T00:31:00.147Z,96502.84
2022-08-17T00:33:11.821Z,96503.38
2022-08-17T00:33:27.639Z,96505.22
2022-08-17T00:34:29.636Z,96502.03
2022-08-17T00:35:33.761Z,96504.97
2022-08-17T00:36:35.686Z,96506.81
2022-08-17T00:37:37.494Z,96504.16
2022-08-17T00:38:39.785Z,96502.53
2022-08-17T00:39:41.643Z,96500.97
2022-08-17T00:40:46.246Z,96502.00
2022-08-17T00:41:49.905Z,96495.69
2022-08-17T00:42:52.239Z,96503.34
2022-08-17T00:43:59.800Z,96497.78
2022-08-17T00:45:04.630Z,96499.94
2022-08-17T00:46:09.553Z,96502.03
2022-08-17T00:47:11.377Z,96494.66
2022-08-17T00:48:30.064Z,96502.56
2022-08-17T00:49:32.409Z,96498.09
2022-08-17T00:50:35.279Z,96496.25
2022-08-17T00:51:37.047Z,96496.25
2022-08-17T00:52:41.821Z,96494.13
2022-08-17T00:53:45.515Z,96492.28
2022-08-17T00:54:49.344Z,96499.41
2022-08-17T00:55:51.118Z,96497.56
2022-08-17T00:56:59.299Z,96496.78
2022-08-17T00:58:03.487Z,96495.16
2022-08-17T00:59:08.367Z,96496.00
2022-08-17T01:00:15.501Z,96502.06
2022-08-17T01:01:21.503Z,96499.41
2022-08-17T01:02:24.126Z,96501.28
2022-08-17T01:03:26.862Z,96498.63
2022-08-17T01:04:29.556Z,96505.75
2022-08-17T01:05:32.321Z,96498.34
2022-08-17T01:06:34.836Z,96500.47
2022-08-17T01:07:38.003Z,96494.13
2022-08-17T01:08:40.832Z,96492.53
2022-08-17T01:09:43.389Z,96490.97
2022-08-17T01:10:59.653Z,96494.38
2022-08-17T01:12:06.773Z,96498.34
2022-08-17T01:13:11.460Z,96486.97
2022-08-17T01:14:14.716Z,96483.56
2022-08-17T01:15:16.754Z,96487.75
2022-08-17T01:16:20.726Z,96487.25
2022-08-17T01:17:22.571Z,96481.72
2022-08-17T01:18:25.508Z,96482.50
2022-08-17T01:19:29.625Z,96487.53
2022-08-17T01:20:34.478Z,96488.31
2022-08-17T01:21:52.896Z,96485.66
2022-08-17T01:22:54.808Z,96484.59
2022-08-17T01:23:56.928Z,96490.69
2022-08-17T01:25:01.260Z,96493.34
2022-08-17T01:26:03.590Z,96484.59
2022-08-17T01:27:10.459Z,96489.09
2022-08-17T01:28:12.666Z,96491.75
2022-08-17T01:29:35.118Z,96492.25
2022-08-17T01:30:56.642Z,96497.56
2022-08-17T01:32:02.193Z,96493.03
2022-08-17T01:33:04.600Z,96493.88
2022-08-17T01:34:08.185Z,96493.56
2022-08-17T01:35:10.151Z,96492.53
2022-08-17T01:36:12.019Z,96491.47
2022-08-17T01:37:14.686Z,96494.09
2022-08-17T01:38:17.346Z,96492.53
2022-08-17T01:39:34.703Z,96489.34
2022-08-17T01:40:41.107Z,96496.22
2022-08-17T01:41:45.665Z,96491.75
2022-08-17T01:42:57.630Z,96484.84
2022-08-17T01:44:02.004Z,96488.28
2022-08-17T01:45:07.319Z,96488.84
2022-08-17T01:46:09.193Z,96492.00
2022-08-17T01:47:11.043Z,96490.16
2022-08-17T01:48:13.217Z,96491.75
2022-08-17T01:49:15.077Z,96495.72
2022-08-17T01:50:18.853Z,96488.03
2022-08-17T01:51:21.214Z,96496.50
2022-08-17T01:52:24.138Z,96493.84
2022-08-17T01:53:36.922Z,96493.59
2022-08-17T01:54:40.252Z,96489.88
2022-08-17T01:55:53.351Z,96493.59
2022-08-17T01:56:55.116Z,96500.19
2022-08-17T01:57:58.191Z,96487.75
2022-08-17T01:59:00.867Z,96498.06
2022-08-17T02:00:05.493Z,96497.56
2022-08-17T02:01:08.039Z,96497.81
2022-08-17T02:02:09.958Z,96495.16
2022-08-17T02:03:13.131Z,96493.59
2022-08-17T02:04:15.266Z,96501.28
2022-08-17T02:05:18.634Z,96497.03
2022-08-17T02:06:26.992Z,96498.88
2022-08-17T02:07:30.188Z,96498.88
2022-08-17T02:08:39.099Z,96497.28
2022-08-17T02:09:57.677Z,96495.16
2022-08-17T02:11:02.290Z,96496.25
2022-08-17T02:12:39.249Z,96494.91
2022-08-17T02:13:29.888Z,96501.81
2022-08-17T02:14:31.754Z,96494.66
2022-08-17T02:15:34.893Z,96498.88
2022-08-17T02:16:38.426Z,96502.59
2022-08-17T02:17:43.078Z,96496.50
2022-08-17T02:18:46.621Z,96492.78
2022-08-17T02:19:48.457Z,96500.19
2022-08-17T02:20:50.262Z,96496.00
2022-08-17T02:21:53.711Z,96491.47
2022-08-17T02:22:55.937Z,96495.44
2022-08-17T02:23:57.805Z,96499.41
2022-08-17T02:25:02.808Z,96491.47
2022-08-17T02:26:05.576Z,96500.47
2022-08-17T02:27:07.583Z,96495.97
2022-08-17T02:28:09.853Z,96501.50
2022-08-17T02:29:12.341Z,96496.78
2022-08-17T02:30:50.219Z,96497.81
2022-08-17T02:31:38.099Z,96494.66
2022-08-17T02:32:40.719Z,96490.44
2022-08-17T02:33:43.741Z,96487.00
2022-08-17T02:34:45.682Z,96482.50
2022-08-17T02:35:47.567Z,96483.03
2022-08-17T02:36:49.361Z,96487.25
2022-08-17T02:37:55.882Z,96478.81
2022-08-17T02:38:58.824Z,96480.88
2022-08-17T02:40:00.758Z,96480.63
2022-08-17T02:41:03.171Z,96481.69
2022-08-17T02:42:05.177Z,96481.41
2022-08-17T02:43:10.153Z,96486.97
2022-08-17T02:44:12.401Z,96479.81
2022-08-17T02:45:16.881Z,96475.31
2022-08-17T02:46:19.863Z,96483.00
2022-08-17T02:47:21.668Z,96474.00
2022-08-17T02:48:30.871Z,96480.63
2022-08-17T02:49:33.744Z,96477.16
2022-08-17T02:50:35.606Z,96479.03
2022-08-17T02:51:37.524Z,96479.59
2022-08-17T02:52:43.442Z,96476.69
2022-08-17T02:53:47.125Z,96475.09
2022-08-17T02:54:48.957Z,96477.16
2022-08-17T02:55:50.763Z,96481.94
2022-08-17T02:56:53.582Z,96481.41
2022-08-17T02:57:55.997Z,96478.22
2022-08-17T02:58:57.773Z,96474.00
2022-08-17T02:59:59.669Z,96474.00
2022-08-17T03:01:01.461Z,96469.25
2022-08-17T03:02:04.032Z,96469.25
2022-08-17T03:03:06.319Z,96477.44
2022-08-17T03:04:08.262Z,96471.88
2022-08-17T03:05:11.349Z,96471.88
2022-08-17T03:06:13.175Z,96472.13
2022-08-17T03:07:16.315Z,96476.63
2022-08-17T03:08:18.332Z,96476.38
2022-08-17T03:09:20.185Z,96470.31
2022-08-17T03:10:22.756Z,96471.09
2022-08-17T03:11:24.520Z,96463.16
2022-08-17T03:12:28.534Z,96466.59
2022-08-17T03:13:31.023Z,96464.75
2022-08-17T03:14:32.889Z,96461.31
2022-08-17T03:15:35.170Z,96463.16
2022-08-17T03:16:37.056Z,96459.72
2022-08-17T03:17:38.862Z,96463.97
2022-08-17T03:18:40.611Z,96471.63
2022-08-17T03:19:43.034Z,96471.34
2022-08-17T03:20:45.210Z,96469.50
2022-08-17T03:21:46.938Z,96464.50
2022-08-17T03:23:02.648Z,96473.72
2022-08-17T03:24:08.867Z,96461.84
2022-08-17T03:25:11.879Z,96459.19
2022-08-17T03:26:15.483Z,96460.78
2022-08-17T03:27:18.243Z,96469.25
2022-08-17T03:28:19.999Z,96467.13
2022-08-17T03:29:21.885Z,96466.88
2022-08-17T03:30:25.160Z,96459.19
2022-08-17T03:31:26.939Z,96460.78
2022-08-17T03:32:28.746Z,96465.28
2022-08-17T03:33:30.604Z,96465.28
2022-08-17T03:34:32.447Z,96465.28
2022-08-17T03:35:36.612Z,96472.94
2022-08-17T03:36:38.542Z,96458.94
2022-08-17T03:37:40.889Z,96462.63
2022-08-17T03:38:42.821Z,96465.03
2022-08-17T03:39:47.660Z,96464.22
2022-08-17T03:40:56.970Z,96460.00
2022-08-17T03:42:09.566Z,96464.22
2022-08-17T03:43:32.313Z,96468.72
2022-08-17T03:44:34.139Z,96470.31
2022-08-17T03:45:59.213Z,96465.53
2022-08-17T03:47:19.682Z,96464.22
2022-08-17T03:48:40.744Z,96468.97
2022-08-17T03:50:00.933Z,96463.66
2022-08-17T03:51:21.096Z,96466.06
2022-08-17T03:52:41.469Z,96473.19
2022-08-17T03:54:05.698Z,96472.13
2022-08-17T03:55:36.234Z,96473.44
2022-08-17T03:56:44.339Z,96476.09
2022-08-17T03:57:46.155Z,96468.69
2022-08-17T03:58:48.412Z,96470.81
2022-08-17T03:59:50.546Z,96480.59
2022-08-17T04:00:52.724Z,96477.13
2022-08-17T04:01:56.022Z,96474.47
2022-08-17T04:02:57.843Z,96468.66
2022-08-17T04:03:59.695Z,96473.44
2022-08-17T04:05:02.321Z,96477.66
2022-08-17T04:06:04.162Z,96474.75
2022-08-17T04:07:06.585Z,96476.09
2022-08-17T04:08:08.766Z,96471.34
2022-08-17T04:09:11.262Z,96476.63
2022-08-17T04:10:14.401Z,96470.28
2022-08-17T04:11:16.233Z,96470.81
2022-08-17T04:12:19.381Z,96469.19
2022-08-17T04:13:24.221Z,96475.81
2022-08-17T04:14:27.391Z,96471.31
2022-08-17T04:15:29.284Z,96465.78
2022-08-17T04:16:31.600Z,96472.38
2022-08-17T04:17:33.486Z,96471.06
2022-08-17T04:18:35.477Z,96476.34
2022-08-17T04:19:37.264Z,96470.81
2022-08-17T04:20:39.089Z,96475.81
2022-08-17T04:21:40.976Z,96476.59
2022-08-17T04:23:02.777Z,96480.06
2022-08-17T04:24:05.794Z,96467.63
2022-08-17T04:25:18.233Z,96465.78
2022-08-17T04:26:53.848Z,96472.38
2022-08-17T04:27:42.525Z,96464.44
2022-08-17T04:28:44.473Z,96476.59
2022-08-17T04:29:55.608Z,96479.25
2022-08-17T04:30:57.769Z,96476.06
2022-08-17T04:31:59.601Z,96477.63
2022-08-17T04:33:07.394Z,96473.16
2022-08-17T04:34:09.877Z,96474.47
2022-08-17T04:35:11.739Z,96468.66
2022-08-17T04:36:14.463Z,96470.25
2022-08-17T04:37:16.232Z,96466.81
2022-08-17T04:38:22.099Z,96474.22
2022-08-17T04:39:26.460Z,96471.84
2022-08-17T04:40:46.500Z,96470.53
2022-08-17T04:42:06.555Z,96477.41
2022-08-17T04:43:10.241Z,96475.28
2022-08-17T04:44:12.739Z,96477.13
2022-08-17T04:45:32.367Z,96488.22
2022-08-17T04:46:35.506Z,96475.53
2022-08-17T04:47:37.969Z,96478.44
2022-08-17T04:48:41.390Z,96472.91
2022-08-17T04:49:43.240Z,96479.50
2022-08-17T04:50:47.200Z,96485.03
2022-08-17T04:51:54.602Z,96488.50
2022-08-17T04:52:58.395Z,96490.31
2022-08-17T04:54:03.047Z,96495.34
2022-08-17T04:55:05.013Z,96489.81
2022-08-17T04:56:07.744Z,96496.66
2022-08-17T04:57:13.735Z,96492.44
2022-08-17T04:58:15.564Z,96492.69
2022-08-17T04:59:21.837Z,96490.84
2022-08-17T05:00:26.078Z,96490.59
2022-08-17T05:01:28.932Z,96488.75
2022-08-17T05:02:33.004Z,96492.19
2022-08-17T05:03:34.854Z,96501.41
2022-08-17T05:04:36.609Z,96495.09
2022-08-17T05:05:40.345Z,96499.31
2022-08-17T05:06:42.249Z,96500.91
2022-08-17T05:07:44.138Z,96499.56
2022-08-17T05:08:45.929Z,96497.72
2022-08-17T05:09:47.866Z,96500.38
2022-08-17T05:10:50.237Z,96495.91
2022-08-17T05:11:52.180Z,96490.34
2022-08-17T05:12:57.834Z,96502.50
2022-08-17T05:13:59.684Z,96498.78
2022-08-17T05:15:01.588Z,96502.47
2022-08-17T05:16:04.725Z,96497.47
2022-08-17T05:17:07.469Z,96499.56
2022-08-17T05:18:13.232Z,96499.84
2022-08-17T05:19:15.041Z,96493.50
2022-08-17T05:20:16.957Z,96499.06
2022-08-17T05:21:19.652Z,96508.56
2022-08-17T05:22:21.451Z,96502.50
2022-08-17T05:23:24.258Z,96500.91
2022-08-17T05:24:39.172Z,96500.91
2022-08-17T05:25:48.236Z,96505.94
2022-08-17T05:26:51.639Z,96501.44
2022-08-17T05:27:55.136Z,96499.56
2022-08-17T05:28:59.796Z,96504.59
2022-08-17T05:30:04.594Z,96505.94
2022-08-17T05:31:06.956Z,96504.06
2022-08-17T05:32:38.922Z,96504.06
2022-08-17T05:33:34.582Z,96504.06
2022-08-17T05:34:36.921Z,96508.53
2022-08-17T05:35:41.223Z,96502.72
2022-08-17T05:36:44.585Z,96503.00
2022-08-17T05:37:46.434Z,96504.59
2022-08-17T05:38:48.388Z,96496.94
2022-08-17T05:39:50.241Z,96497.72
2022-08-17T05:40:52.673Z,96499.56
2022-08-17T05:41:54.548Z,96498.53
2022-08-17T05:43:08.226Z,96501.44
2022-08-17T05:44:10.096Z,96496.16
2022-08-17T05:45:12.106Z,96503.00
2022-08-17T05:46:25.232Z,96496.16
2022-08-17T05:47:27.568Z,96494.56
2022-08-17T05:48:35.429Z,96490.59
2022-08-17T05:49:41.699Z,96493.78
2022-08-17T05:50:55.582Z,96494.31
2022-08-17T05:52:17.150Z,96489.81
2022-08-17T05:53:21.959Z,96494.31
2022-08-17T05:54:30.864Z,96492.16
2022-08-17T05:55:38.697Z,96493.25
2022-08-17T05:56:43.668Z,96491.13
2022-08-17T05:57:54.069Z,96481.59
2022-08-17T05:59:16.622Z,96485.31
2022-08-17T06:00:20.373Z,96488.75
2022-08-17T06:01:22.605Z,96478.72
2022-08-17T06:02:47.492Z,96475.53
2022-08-17T06:03:56.532Z,96471.31
2022-08-17T06:05:14.677Z,96470.28
2022-08-17T06:06:32.299Z,96469.72
2022-08-17T06:07:45.490Z,96472.13
2022-08-17T06:08:56.214Z,96470.53
2022-08-17T06:10:01.145Z,96465.78
2022-08-17T06:11:10.079Z,96467.13
2022-08-17T06:12:21.694Z,96458.41
2022-08-17T06:13:42.224Z,96463.97
2022-08-17T06:15:02.447Z,96456.56
2022-08-17T06:16:25.875Z,96458.69
2022-08-17T06:17:35.986Z,96457.59
2022-08-17T06:18:58.115Z,96457.88
2022-08-17T06:20:03.362Z,96460.25
2022-08-17T06:21:07.962Z,96459.44
2022-08-17T06:22:12.757Z,96462.91
2022-08-17T06:23:18.514Z,96460.78
2022-08-17T06:24:39.155Z,96468.72
2022-08-17T06:26:00.169Z,96474.81
2022-08-17T06:27:07.980Z,96472.44
2022-08-17T06:28:14.457Z,96466.59
2022-08-17T06:29:22.660Z,96471.13
2022-08-17T06:30:26.339Z,96469.28
2022-08-17T06:31:31.745Z,96459.75
2022-08-17T06:32:36.187Z,96459.22
2022-08-17T06:33:39.651Z,96458.16
2022-08-17T06:34:42.571Z,96455.25
2022-08-17T06:36:09.200Z,96455.50
2022-08-17T06:37:19.517Z,96456.56
2022-08-17T06:38:37.498Z,96453.91
2022-08-17T06:39:43.841Z,96455.22
2022-08-17T06:40:45.833Z,96450.72
2022-08-17T06:41:53.957Z,96452.81
2022-08-17T06:43:14.558Z,96456.50
2022-08-17T06:44:43.402Z,96455.44
2022-08-17T06:45:41.821Z,96450.69
2022-08-17T06:46:49.248Z,96451.72
2022-08-17T06:47:59.785Z,96454.34
2022-08-17T06:49:10.729Z,96443.22
2022-08-17T06:50:21.988Z,96449.81
2022-08-17T06:51:44.030Z,96450.59
2022-08-17T06:52:52.052Z,96450.06
2022-08-17T06:54:00.072Z,96445.31
2022-08-17T06:55:07.711Z,96450.84
2022-08-17T06:56:23.927Z,96450.03
2022-08-17T06:57:28.707Z,96451.63
2022-08-17T06:58:32.431Z,96454.84
2022-08-17T06:59:55.327Z,96453.75
2022-08-17T07:01:01.851Z,96441.81
2022-08-17T07:02:05.840Z,96451.63
2022-08-17T07:03:19.209Z,96440.47
2022-08-17T07:04:23.753Z,96438.59
2022-08-17T07:05:41.398Z,96437.78
2022-08-17T07:06:57.946Z,96441.97
2022-08-17T07:08:35.321Z,96435.06
2022-08-17T07:09:38.274Z,96438.22
2022-08-17T07:10:44.866Z,96432.88
2022-08-17T07:12:00.612Z,96435.50
2022-08-17T07:13:12.303Z,96424.34
2022-08-17T07:14:17.375Z,96431.19
2022-08-17T07:15:29.914Z,96431.16
2022-08-17T07:16:31.768Z,96430.06
2022-08-17T07:17:46.654Z,96428.44
2022-08-17T07:18:50.821Z,96430.53
2022-08-17T07:19:56.937Z,96429.97
2022-08-17T07:21:02.937Z,96433.66
2022-08-17T07:22:04.690Z,96431.28
2022-08-17T07:23:06.555Z,96433.91
2022-08-17T07:24:29.257Z,96434.44
2022-08-17T07:25:32.455Z,96429.88
2022-08-17T07:26:34.282Z,96427.75
2022-08-17T07:27:38.029Z,96418.94
2022-08-17T07:28:39.789Z,96420.75
2022-08-17T07:29:50.119Z,96422.09
2022-08-17T07:30:53.987Z,96411.19
2022-08-17T07:31:55.795Z,96412.19
2022-08-17T07:33:01.474Z,96414.31
2022-08-17T07:34:08.625Z,96411.06
2022-08-17T07:35:23.544Z,96418.22
2022-08-17T07:36:39.343Z,96414.16
2022-08-17T07:37:43.046Z,96419.41
2022-08-17T07:38:55.872Z,96424.44
2022-08-17T07:40:15.364Z,96424.66
2022-08-17T07:41:20.576Z,96428.34
2022-08-17T07:42:22.575Z,96423.75
2022-08-17T07:43:26.396Z,96426.09
2022-08-17T07:44:31.382Z,96424.44
2022-08-17T07:45:52.568Z,96423.59
2022-08-17T07:47:13.684Z,96423.84
2022-08-17T07:48:19.813Z,96422.22
2022-08-17T07:49:23.752Z,96415.25
2022-08-17T07:50:27.455Z,96415.19
2022-08-17T07:51:29.438Z,96415.41
2022-08-17T07:52:50.843Z,96409.03
2022-08-17T07:54:12.868Z,96412.69
2022-08-17T07:55:26.627Z,96418.75
2022-08-17T07:56:41.540Z,96413.13
2022-08-17T07:57:43.603Z,96416.50
2022-08-17T07:58:47.673Z,96415.97
2022-08-17T08:00:01.801Z,96415.38
2022-08-17T08:01:06.958Z,96423.28
2022-08-17T08:02:16.330Z,96417.88
2022-08-17T08:03:26.242Z,96422.34
2022-08-17T08:04:59.048Z,96419.63
2022-08-17T08:05:58.055Z,96417.69
2022-08-17T08:07:01.737Z,96422.91
2022-08-17T08:08:06.176Z,96422.84
2022-08-17T08:09:08.414Z,96411.66
2022-08-17T08:10:12.061Z,96416.41
2022-08-17T08:11:15.750Z,96416.34
2022-08-17T08:12:28.926Z,96420.56
2022-08-17T08:13:40.664Z,96423.16
2022-08-17T08:14:51.978Z,96415.88
2022-08-17T08:15:56.002Z,96410.00
2022-08-17T08:17:02.231Z,96416.59
2022-08-17T08:18:05.782Z,96418.38
2022-08-17T08:19:08.635Z,96415.16
2022-08-17T08:20:37.732Z,96413.47
2022-08-17T08:21:35.382Z,96412.59
2022-08-17T08:22:57.600Z,96412.03
2022-08-17T08:23:59.486Z,96411.44
2022-08-17T08:25:04.181Z,96411.63
2022-08-17T08:26:23.377Z,96407.03
2022-08-17T08:27:42.824Z,96410.69
2022-08-17T08:28:44.585Z,96408.53
2022-08-17T08:30:05.556Z,96407.13
2022-08-17T08:31:10.230Z,96411.06
2022-08-17T08:32:43.157Z,96408.91
2022-08-17T08:33:52.137Z,96412.28
2022-08-17T08:35:06.875Z,96422.38
2022-08-17T08:37:02.085Z,96424.94
2022-08-17T08:38:15.163Z,96421.41
2022-08-17T08:39:23.618Z,96416.25
2022-08-17T08:40:25.441Z,96419.13
2022-08-17T08:41:33.509Z,96414.78
2022-08-17T08:42:54.227Z,96416.06
2022-08-17T08:44:06.315Z,96415.00
2022-08-17T08:45:10.936Z,96410.94
2022-08-17T08:47:26.819Z,96408.19
2022-08-17T08:48:57.061Z,96411.34
2022-08-17T08:50:08.467Z,96406.72
2022-08-17T08:51:21.866Z,96405.34
2022-08-17T08:52:34.305Z,96407.09
2022-08-17T08:53:36.502Z,96407.78
2022-08-17T08:54:47.942Z,96404.50
2022-08-17T08:55:54.150Z,96406.31
2022-08-17T08:57:22.271Z,96403.03
2022-08-17T08:58:32.111Z,96401.66
2022-08-17T08:59:44.544Z,96397.91
2022-08-17T09:00:56.008Z,96410.63
2022-08-17T09:02:16.459Z,96395.13
2022-08-17T09:03:52.329Z,96391.91
2022-08-17T09:05:20.598Z,96398.50
2022-08-17T09:06:39.060Z,96401.34
2022-08-17T09:07:50.440Z,96398.88
2022-08-17T09:08:57.468Z,96403.00
2022-08-17T09:10:05.455Z,96401.31
2022-08-17T09:11:12.561Z,96402.28
2022-08-17T09:12:30.161Z,96407.34
2022-08-17T09:13:37.876Z,96404.53
2022-08-17T09:14:47.121Z,96404.91
2022-08-17T09:15:56.537Z,96407.47
2022-08-17T09:17:07.910Z,96407.84
2022-08-17T09:19:02.377Z,96409.78
2022-08-17T09:19:41.367Z,96415.66
2022-08-17T09:20:50.434Z,96406.16
2022-08-17T09:21:54.879Z,96407.31
2022-08-17T09:23:00.304Z,96408.94
2022-08-17T09:24:09.980Z,96409.13
2022-08-17T09:25:29.165Z,96403.78
2022-08-17T09:26:37.386Z,96403.47
2022-08-17T09:27:54.685Z,96400.81
2022-08-17T09:29:01.757Z,96399.09
2022-08-17T09:30:08.099Z,96397.72
2022-08-17T09:31:11.925Z,96397.88
2022-08-17T09:32:17.793Z,96399.47
2022-08-17T09:33:23.337Z,96396.50
2022-08-17T09:34:33.384Z,96389.13
2022-08-17T09:35:42.622Z,96385.72
2022-08-17T09:36:48.215Z,96384.50
2022-08-17T09:38:11.267Z,96391.56
2022-08-17T09:39:33.494Z,96384.72
2022-08-17T09:40:44.768Z,96381.59
2022-08-17T09:41:51.002Z,96380.34
2022-08-17T09:42:55.139Z,96382.88
2022-08-17T09:43:56.840Z,96375.66
2022-08-17T09:45:04.362Z,96377.72
2022-08-17T09:46:11.935Z,96372.56
2022-08-17T09:47:30.796Z,96373.03
2022-08-17T09:48:37.701Z,96371.00
2022-08-17T09:49:58.414Z,96375.72
2022-08-17T09:51:06.610Z,96374.31
2022-08-17T09:52:14.770Z,96368.22
2022-08-17T09:53:19.544Z,96369.63
2022-08-17T09:54:44.831Z,96369.44
2022-08-17T09:55:52.567Z,96370.09
2022-08-17T09:57:27.876Z,96368.66
2022-08-17T09:58:39.179Z,96370.88
2022-08-17T10:00:13.157Z,96368.50
2022-08-17T10:01:21.365Z,96360.00
2022-08-17T10:02:29.269Z,96362.97
2022-08-17T10:03:34.543Z,96356.19
2022-08-17T10:05:05.618Z,96353.19
2022-08-17T10:06:13.601Z,96355.22
2022-08-17T10:07:22.982Z,96359.41
2022-08-17T10:08:30.533Z,96351.78
2022-08-17T10:09:42.011Z,96351.63
2022-08-17T10:10:56.461Z,96352.84
2022-08-17T10:12:17.817Z,96345.91
2022-08-17T10:13:26.265Z,96340.50
2022-08-17T10:14:36.333Z,96343.47
2022-08-17T10:15:58.948Z,96341.72
2022-08-17T10:17:04.361Z,96337.28
2022-08-17T10:18:08.383Z,96338.97
2022-08-17T10:19:14.021Z,96337.03
2022-08-17T10:20:23.479Z,96334.47
2022-08-17T10:21:45.336Z,96328.16
2022-08-17T10:23:26.073Z,96329.31
2022-08-17T10:25:21.618Z,96326.09
2022-08-17T10:26:24.401Z,96329.97
2022-08-17T10:27:32.265Z,96331.34
2022-08-17T10:28:39.926Z,96334.16
2022-08-17T10:29:48.478Z,96333.06
2022-08-17T10:31:16.566Z,96322.19
2022-08-17T10:32:37.478Z,96318.94
2022-08-17T10:33:54.443Z,96324.50
2022-08-17T10:35:03.063Z,96327.19
2022-08-17T10:36:15.968Z,96317.47
2022-08-17T10:37:17.749Z,96329.25
2022-08-17T10:38:28.857Z,96322.66
2022-08-17T10:39:51.982Z,96320.28
2022-08-17T10:40:54.723Z,96315.84
2022-08-17T10:42:00.879Z,96315.63
2022-08-17T10:43:02.647Z,96314.28
2022-08-17T10:44:39.095Z,96307.09
2022-08-17T10:45:47.299Z,96312.47
2022-08-17T10:46:55.885Z,96311.88
2022-08-17T10:48:06.222Z,96307.06
2022-08-17T10:49:23.264Z,96311.06
2022-08-17T10:50:43.676Z,96303.09
2022-08-17T10:51:48.123Z,96302.19
2022-08-17T10:52:50.244Z,96301.59
2022-08-17T10:53:52.809Z,96299.00
2022-08-17T10:54:58.077Z,96298.78
2022-08-17T10:56:12.649Z,96303.78
2022-08-17T10:57:23.658Z,96309.72
2022-08-17T10:58:28.890Z,96302.19
2022-08-17T10:59:36.826Z,96308.53
2022-08-17T11:00:41.708Z,96294.81
2022-08-17T11:01:58.501Z,96302.66
2022-08-17T11:03:00.554Z,96294.44
2022-08-17T11:04:22.026Z,96294.97
2022-08-17T11:05:45.826Z,96300.97
2022-08-17T11:06:50.670Z,96297.25
2022-08-17T11:08:12.870Z,96299.75
2022-08-17T11:09:23.652Z,96296.09
2022-08-17T11:10:42.342Z,96298.19
2022-08-17T11:12:07.449Z,96300.63
2022-08-17T11:13:11.941Z,96300.41
2022-08-17T11:14:28.886Z,96289.34
2022-08-17T11:15:33.580Z,96290.63
2022-08-17T11:16:48.278Z,96287.69
2022-08-17T11:18:08.956Z,96295.16
2022-08-17T11:19:13.755Z,96288.78
2022-08-17T11:20:34.921Z,96297.81
2022-08-17T11:21:45.799Z,96292.56
2022-08-17T11:22:50.864Z,96290.50
2022-08-17T11:24:05.033Z,96285.53
2022-08-17T11:25:32.080Z,96287.97
2022-08-17T11:26:35.478Z,96292.72
2022-08-17T11:27:37.517Z,96292.84
2022-08-17T11:28:48.948Z,96297.25
2022-08-17T11:30:01.541Z,96291.22
2022-08-17T11:31:04.131Z,96292.56
2022-08-17T11:32:27.638Z,96295.84
2022-08-17T11:33:36.825Z,96291.31
2022-08-17T11:34:42.132Z,96284.06
2022-08-17T11:35:48.663Z,96291.50
2022-08-17T11:37:09.281Z,96289.28
2022-08-17T11:38:28.512Z,96292.91
2022-08-17T11:39:33.143Z,96288.00
2022-08-17T11:40:41.542Z,96286.91
2022-08-17T11:41:49.921Z,96281.22
2022-08-17T11:43:07.893Z,96288.22
2022-08-17T11:44:15.727Z,96286.81
2022-08-17T11:45:36.247Z,96281.84
2022-08-17T11:46:56.362Z,96276.97
2022-08-17T11:48:28.814Z,96272.41
2022-08-17T11:50:03.315Z,96284.09
2022-08-17T11:51:33.835Z,96283.03
2022-08-17T11:52:53.901Z,96276.53
2022-08-17T11:54:21.646Z,96276.94
2022-08-17T11:55:38.501Z,96277.38
2022-08-17T11:56:50.779Z,96271.28
2022-08-17T11:58:00.701Z,96272.91
2022-08-17T11:59:02.745Z,96269.09
2022-08-17T12:00:11.079Z,96271.81
2022-08-17T12:01:22.377Z,96271.47
2022-08-17T12:02:33.065Z,96272.31
2022-08-17T12:03:34.789Z,96273.97
2022-08-17T12:04:36.695Z,96272.50
2022-08-17T12:05:38.651Z,96269.06
2022-08-17T12:06:43.599Z,96268.38
2022-08-17T12:07:52.169Z,96266.88
2022-08-17T12:08:56.308Z,96265.75
2022-08-17T12:09:59.973Z,96268.94
2022-08-17T12:11:07.541Z,96268.63
2022-08-17T12:12:25.602Z,96281.47
2022-08-17T12:13:34.616Z,96272.25
2022-08-17T12:15:12.015Z,96265.31
2022-08-17T12:16:03.784Z,96268.13
2022-08-17T12:17:07.454Z,96264.28
2022-08-17T12:18:19.099Z,96263.56
2022-08-17T12:19:21.944Z,96269.03
2022-08-17T12:20:38.160Z,96267.16
2022-08-17T12:21:49.103Z,96269.38
2022-08-17T12:23:04.634Z,96259.25
2022-08-17T12:24:06.726Z,96268.47
2022-08-17T12:25:14.027Z,96271.13
2022-08-17T12:26:21.207Z,96276.84
2022-08-17T12:27:48.946Z,96271.75
2022-08-17T12:28:57.764Z,96267.28
2022-08-17T12:30:09.962Z,96266.81
2022-08-17T12:31:18.183Z,96267.97
2022-08-17T12:32:21.336Z,96258.75
2022-08-17T12:33:25.490Z,96262.69
2022-08-17T12:34:36.160Z,96259.34
2022-08-17T12:35:39.475Z,96252.91
2022-08-17T12:36:41.845Z,96249.91
2022-08-17T12:37:46.025Z,96256.59
2022-08-17T12:39:13.847Z,96250.09
2022-08-17T12:40:27.334Z,96258.72
2022-08-17T12:41:30.485Z,96259.94
2022-08-17T12:42:35.063Z,96254.63
2022-08-17T12:43:38.936Z,96257.41
2022-08-17T12:44:49.966Z,96262.91
2022-08-17T12:46:13.375Z,96261.00
2022-08-17T12:47:22.265Z,96264.97
2022-08-17T12:48:27.012Z,96263.88
2022-08-17T12:49:31.557Z,96260.03
2022-08-17T12:50:38.779Z,96264.28
2022-08-17T12:51:47.802Z,96266.66
2022-08-17T12:52:50.254Z,96259.34
2022-08-17T12:53:55.805Z,96264.00
2022-08-17T12:55:05.839Z,96262.09
2022-08-17T12:56:10.941Z,96262.53
2022-08-17T12:57:14.906Z,96265.28
2022-08-17T12:58:22.336Z,96264.16
2022-08-17T12:59:30.078Z,96258.31
2022-08-17T13:00:34.712Z,96266.50
2022-08-17T13:01:41.943Z,96264.16
2022-08-17T13:02:49.170Z,96257.19
2022-08-17T13:03:52.605Z,96262.63
2022-08-17T13:04:57.044Z,96260.69
2022-08-17T13:06:00.905Z,96262.25
2022-08-17T13:07:02.806Z,96262.59
2022-08-17T13:08:14.592Z,96262.56
2022-08-17T13:09:21.084Z,96259.88
2022-08-17T13:10:23.025Z,96261.03
2022-08-17T13:11:25.128Z,96266.13
2022-08-17T13:12:31.566Z,96250.63
2022-08-17T13:13:35.204Z,96254.13
2022-08-17T13:14:36.992Z,96255.72
2022-08-17T13:15:45.030Z,96258.81
2022-08-17T13:17:11.097Z,96260.75
2022-08-17T13:18:33.541Z,96266.59
2022-08-17T13:19:48.072Z,96262.72
2022-08-17T13:21:01.456Z,96265.34
2022-08-17T13:22:04.107Z,96264.97
2022-08-17T13:23:11.957Z,96263.06
2022-08-17T13:24:17.912Z,96267.72